sensor_id;sensor_type;location;lat;lon;timestamp;temperature;humidity
32965;DHT22;19317;48.226;11.686;2023-04-20T00:02:13;6.00;99.90
32965;DHT22;19317;48.226;11.686;2023-04-20T00:07:03;6.00;99.90
32965;DHT22;19317;48.226;11.686;2023-04-20T00:11:54;5.90;99.90
32965;DHT22;19317;48.226;11.686;2023-04-20T00:16:44;6.00;99.90
32965;DHT22;19317;48.226;11.686;2023-04-20T00:21:35;6.00;99.90
32965;DHT22;19317;48.226;11.686;2023-04-20T00:26:25;5.90;99.90
32965;DHT22;19317;48.226;11.686;2023-04-20T00:31:17;5.80;99.90
32965;DHT22;19317;48.226;11.686;2023-04-20T00:36:07;5.90;99.90
32965;DHT22;19317;48.226;11.686;2023-04-20T00:40:58;5.80;99.90
32965;DHT22;19317;48.226;11.686;2023-04-20T00:45:48;5.80;99.90
32965;DHT22;19317;48.226;11.686;2023-04-20T00:50:39;5.80;99.90
32965;DHT22;19317;48.226;11.686;2023-04-20T00:55:30;5.80;99.90
32965;DHT22;19317;48.226;11.686;2023-04-20T01:00:20;5.80;99.90
32965;DHT22;19317;48.226;11.686;2023-04-20T01:05:11;5.80;99.90
32965;DHT22;19317;48.226;11.686;2023-04-20T01:10:01;5.70;99.90
32965;DHT22;19317;48.226;11.686;2023-04-20T01:14:52;5.40;99.90
32965;DHT22;19317;48.226;11.686;2023-04-20T01:19:43;5.70;99.90
32965;DHT22;19317;48.226;11.686;2023-04-20T01:24:33;5.80;99.90
32965;DHT22;19317;48.226;11.686;2023-04-20T01:29:23;5.70;99.90
32965;DHT22;19317;48.226;11.686;2023-04-20T01:34:14;5.60;99.90
32965;DHT22;19317;48.226;11.686;2023-04-20T01:39:04;5.50;99.90
32965;DHT22;19317;48.226;11.686;2023-04-20T01:43:55;5.50;99.90
32965;DHT22;19317;48.226;11.686;2023-04-20T01:48:45;5.60;99.90
32965;DHT22;19317;48.226;11.686;2023-04-20T01:53:36;5.60;99.90
32965;DHT22;19317;48.226;11.686;2023-04-20T01:58:26;5.50;99.90
32965;DHT22;19317;48.226;11.686;2023-04-20T02:03:17;5.50;99.90
32965;DHT22;19317;48.226;11.686;2023-04-20T02:08:07;5.30;99.90
32965;DHT22;19317;48.226;11.686;2023-04-20T02:12:58;5.50;99.90
32965;DHT22;19317;48.226;11.686;2023-04-20T02:17:48;5.40;99.90
32965;DHT22;19317;48.226;11.686;2023-04-20T02:22:39;5.40;99.90
32965;DHT22;19317;48.226;11.686;2023-04-20T02:27:30;5.30;99.90
32965;DHT22;19317;48.226;11.686;2023-04-20T02:32:20;5.20;99.90
32965;DHT22;19317;48.226;11.686;2023-04-20T02:37:11;5.20;99.90
32965;DHT22;19317;48.226;11.686;2023-04-20T02:42:01;5.30;99.90
32965;DHT22;19317;48.226;11.686;2023-04-20T02:46:52;5.20;99.90
32965;DHT22;19317;48.226;11.686;2023-04-20T02:51:42;5.20;99.90
32965;DHT22;19317;48.226;11.686;2023-04-20T02:56:33;5.30;99.90
32965;DHT22;19317;48.226;11.686;2023-04-20T03:01:23;5.20;99.90
32965;DHT22;19317;48.226;11.686;2023-04-20T03:06:13;5.20;99.90
32965;DHT22;19317;48.226;11.686;2023-04-20T03:11:04;5.20;99.90
32965;DHT22;19317;48.226;11.686;2023-04-20T03:15:54;5.10;99.90
32965;DHT22;19317;48.226;11.686;2023-04-20T03:20:45;5.20;99.90
32965;DHT22;19317;48.226;11.686;2023-04-20T03:25:36;5.00;99.90
32965;DHT22;19317;48.226;11.686;2023-04-20T03:30:26;4.90;99.90
32965;DHT22;19317;48.226;11.686;2023-04-20T03:35:17;4.90;99.90
32965;DHT22;19317;48.226;11.686;2023-04-20T03:40:08;4.80;99.90
32965;DHT22;19317;48.226;11.686;2023-04-20T03:44:58;4.80;99.90
32965;DHT22;19317;48.226;11.686;2023-04-20T03:49:49;4.80;99.90
32965;DHT22;19317;48.226;11.686;2023-04-20T03:54:40;4.90;99.90
32965;DHT22;19317;48.226;11.686;2023-04-20T03:59:30;4.90;99.90
32965;DHT22;19317;48.226;11.686;2023-04-20T04:04:21;4.90;99.90
32965;DHT22;19317;48.226;11.686;2023-04-20T04:09:11;4.90;99.90
32965;DHT22;19317;48.226;11.686;2023-04-20T04:14:02;4.90;99.90
32965;DHT22;19317;48.226;11.686;2023-04-20T04:18:52;4.90;99.90
32965;DHT22;19317;48.226;11.686;2023-04-20T04:23:42;4.90;99.90
32965;DHT22;19317;48.226;11.686;2023-04-20T04:28:33;5.00;99.90
32965;DHT22;19317;48.226;11.686;2023-04-20T04:33:23;4.80;99.90
32965;DHT22;19317;48.226;11.686;2023-04-20T04:38:14;4.70;99.90
32965;DHT22;19317;48.226;11.686;2023-04-20T04:43:04;4.80;99.90
32965;DHT22;19317;48.226;11.686;2023-04-20T04:47:55;4.80;99.90
32965;DHT22;19317;48.226;11.686;2023-04-20T04:52:45;4.80;99.90
32965;DHT22;19317;48.226;11.686;2023-04-20T04:57:36;4.80;99.90
32965;DHT22;19317;48.226;11.686;2023-04-20T05:02:26;5.00;99.90
32965;DHT22;19317;48.226;11.686;2023-04-20T05:07:17;4.80;99.90
32965;DHT22;19317;48.226;11.686;2023-04-20T05:12:07;4.80;99.90
32965;DHT22;19317;48.226;11.686;2023-04-20T05:16:58;4.80;99.90
32965;DHT22;19317;48.226;11.686;2023-04-20T05:21:49;4.80;99.90
32965;DHT22;19317;48.226;11.686;2023-04-20T05:26:39;4.80;99.90
32965;DHT22;19317;48.226;11.686;2023-04-20T05:31:30;4.80;99.90
32965;DHT22;19317;48.226;11.686;2023-04-20T05:36:20;4.80;99.90
32965;DHT22;19317;48.226;11.686;2023-04-20T05:41:11;4.80;99.90
32965;DHT22;19317;48.226;11.686;2023-04-20T05:46:01;4.70;99.90
32965;DHT22;19317;48.226;11.686;2023-04-20T05:50:52;4.80;99.90
32965;DHT22;19317;48.226;11.686;2023-04-20T05:55:43;5.10;99.90
32965;DHT22;19317;48.226;11.686;2023-04-20T06:00:34;5.00;99.90
32965;DHT22;19317;48.226;11.686;2023-04-20T06:05:24;5.60;99.90
32965;DHT22;19317;48.226;11.686;2023-04-20T06:10:15;5.10;99.90
32965;DHT22;19317;48.226;11.686;2023-04-20T06:15:06;5.00;99.90
32965;DHT22;19317;48.226;11.686;2023-04-20T06:19:56;5.00;99.90
32965;DHT22;19317;48.226;11.686;2023-04-20T06:24:47;5.00;99.90
32965;DHT22;19317;48.226;11.686;2023-04-20T06:29:37;4.80;99.90
32965;DHT22;19317;48.226;11.686;2023-04-20T06:34:28;4.80;99.90
32965;DHT22;19317;48.226;11.686;2023-04-20T06:39:18;4.90;99.90
32965;DHT22;19317;48.226;11.686;2023-04-20T06:44:09;4.80;99.90
32965;DHT22;19317;48.226;11.686;2023-04-20T06:49:00;4.70;99.90
32965;DHT22;19317;48.226;11.686;2023-04-20T06:53:50;4.90;99.90
32965;DHT22;19317;48.226;11.686;2023-04-20T06:58:40;4.80;99.90
32965;DHT22;19317;48.226;11.686;2023-04-20T07:03:31;4.80;99.90
32965;DHT22;19317;48.226;11.686;2023-04-20T07:08:22;4.70;99.90
32965;DHT22;19317;48.226;11.686;2023-04-20T07:13:12;4.70;99.90
32965;DHT22;19317;48.226;11.686;2023-04-20T07:18:02;4.80;99.90
32965;DHT22;19317;48.226;11.686;2023-04-20T07:22:53;4.80;99.90
32965;DHT22;19317;48.226;11.686;2023-04-20T07:27:43;4.80;99.90
32965;DHT22;19317;48.226;11.686;2023-04-20T07:32:35;4.80;99.90
32965;DHT22;19317;48.226;11.686;2023-04-20T07:37:27;4.80;99.90
32965;DHT22;19317;48.226;11.686;2023-04-20T07:42:18;4.70;99.90
32965;DHT22;19317;48.226;11.686;2023-04-20T07:47:09;4.80;99.90
32965;DHT22;19317;48.226;11.686;2023-04-20T07:51:59;4.80;99.90
32965;DHT22;19317;48.226;11.686;2023-04-20T07:56:49;4.90;99.90
32965;DHT22;19317;48.226;11.686;2023-04-20T08:01:40;4.80;99.90
32965;DHT22;19317;48.226;11.686;2023-04-20T08:06:31;4.90;99.90
32965;DHT22;19317;48.226;11.686;2023-04-20T08:11:21;5.00;99.90
32965;DHT22;19317;48.226;11.686;2023-04-20T08:16:12;5.00;99.90
32965;DHT22;19317;48.226;11.686;2023-04-20T08:21:02;5.00;99.90
32965;DHT22;19317;48.226;11.686;2023-04-20T08:25:56;4.90;99.90
32965;DHT22;19317;48.226;11.686;2023-04-20T08:30:46;4.90;99.90
32965;DHT22;19317;48.226;11.686;2023-04-20T08:35:37;5.00;99.90
32965;DHT22;19317;48.226;11.686;2023-04-20T08:40:29;5.10;99.90
32965;DHT22;19317;48.226;11.686;2023-04-20T08:45:20;5.20;99.90
32965;DHT22;19317;48.226;11.686;2023-04-20T08:50:10;5.10;99.90
32965;DHT22;19317;48.226;11.686;2023-04-20T08:55:01;5.10;99.90
32965;DHT22;19317;48.226;11.686;2023-04-20T08:59:51;5.10;99.90
32965;DHT22;19317;48.226;11.686;2023-04-20T09:04:42;5.10;99.90
32965;DHT22;19317;48.226;11.686;2023-04-20T09:09:32;5.30;99.90
32965;DHT22;19317;48.226;11.686;2023-04-20T09:14:22;5.20;99.90
32965;DHT22;19317;48.226;11.686;2023-04-20T09:19:13;5.30;99.90
32965;DHT22;19317;48.226;11.686;2023-04-20T09:24:04;5.30;99.90
32965;DHT22;19317;48.226;11.686;2023-04-20T09:28:55;5.50;99.90
32965;DHT22;19317;48.226;11.686;2023-04-20T09:34:01;5.40;99.90
32965;DHT22;19317;48.226;11.686;2023-04-20T09:39:12;5.50;99.90
32965;DHT22;19317;48.226;11.686;2023-04-20T09:44:03;5.50;99.90
32965;DHT22;19317;48.226;11.686;2023-04-20T09:48:54;5.60;99.90
32965;DHT22;19317;48.226;11.686;2023-04-20T09:53:45;5.60;99.90
32965;DHT22;19317;48.226;11.686;2023-04-20T09:58:35;5.70;99.90
32965;DHT22;19317;48.226;11.686;2023-04-20T10:03:27;5.60;99.90
32965;DHT22;19317;48.226;11.686;2023-04-20T10:08:17;5.60;99.90
32965;DHT22;19317;48.226;11.686;2023-04-20T10:13:08;5.70;99.90
32965;DHT22;19317;48.226;11.686;2023-04-20T10:17:58;5.80;99.90
32965;DHT22;19317;48.226;11.686;2023-04-20T10:22:53;5.70;99.90
32965;DHT22;19317;48.226;11.686;2023-04-20T10:32:47;5.90;99.90
32965;DHT22;19317;48.226;11.686;2023-04-20T10:37:50;5.90;99.90
32965;DHT22;19317;48.226;11.686;2023-04-20T10:42:42;6.00;99.90
32965;DHT22;19317;48.226;11.686;2023-04-20T10:47:33;5.90;99.90
32965;DHT22;19317;48.226;11.686;2023-04-20T10:52:33;6.00;99.90
32965;DHT22;19317;48.226;11.686;2023-04-20T10:57:23;6.00;99.90
32965;DHT22;19317;48.226;11.686;2023-04-20T11:02:14;5.90;99.90
32965;DHT22;19317;48.226;11.686;2023-04-20T11:07:06;6.10;99.90
32965;DHT22;19317;48.226;11.686;2023-04-20T11:12:05;6.10;99.90
32965;DHT22;19317;48.226;11.686;2023-04-20T11:16:56;6.20;99.90
32965;DHT22;19317;48.226;11.686;2023-04-20T11:21:46;6.40;99.90
32965;DHT22;19317;48.226;11.686;2023-04-20T11:26:37;6.50;99.90
32965;DHT22;19317;48.226;11.686;2023-04-20T11:31:28;6.50;99.90
32965;DHT22;19317;48.226;11.686;2023-04-20T11:36:20;6.50;99.90
32965;DHT22;19317;48.226;11.686;2023-04-20T11:41:10;6.50;99.90
32965;DHT22;19317;48.226;11.686;2023-04-20T11:46:01;6.60;99.90
32965;DHT22;19317;48.226;11.686;2023-04-20T11:50:51;6.70;99.90
32965;DHT22;19317;48.226;11.686;2023-04-20T11:55:42;6.70;99.90
32965;DHT22;19317;48.226;11.686;2023-04-20T12:00:33;6.90;99.90
32965;DHT22;19317;48.226;11.686;2023-04-20T12:05:23;6.80;99.90
32965;DHT22;19317;48.226;11.686;2023-04-20T12:10:14;6.90;99.90
32965;DHT22;19317;48.226;11.686;2023-04-20T12:15:04;7.00;99.90
32965;DHT22;19317;48.226;11.686;2023-04-20T12:19:55;7.00;99.90
32965;DHT22;19317;48.226;11.686;2023-04-20T12:24:45;6.90;99.90
32965;DHT22;19317;48.226;11.686;2023-04-20T12:29:36;6.90;99.90
32965;DHT22;19317;48.226;11.686;2023-04-20T12:34:26;6.70;99.90
32965;DHT22;19317;48.226;11.686;2023-04-20T12:39:17;6.80;99.90
32965;DHT22;19317;48.226;11.686;2023-04-20T12:44:07;6.80;99.90
32965;DHT22;19317;48.226;11.686;2023-04-20T12:48:58;6.80;99.90
32965;DHT22;19317;48.226;11.686;2023-04-20T12:53:48;6.70;99.90
32965;DHT22;19317;48.226;11.686;2023-04-20T12:58:38;6.70;99.90
32965;DHT22;19317;48.226;11.686;2023-04-20T13:03:29;6.70;99.90
32965;DHT22;19317;48.226;11.686;2023-04-20T13:08:19;6.70;99.90
32965;DHT22;19317;48.226;11.686;2023-04-20T13:13:10;6.80;99.90
32965;DHT22;19317;48.226;11.686;2023-04-20T13:18:01;6.90;99.90
32965;DHT22;19317;48.226;11.686;2023-04-20T13:22:51;7.00;99.90
32965;DHT22;19317;48.226;11.686;2023-04-20T13:27:42;7.10;99.90
32965;DHT22;19317;48.226;11.686;2023-04-20T13:32:33;7.20;99.90
32965;DHT22;19317;48.226;11.686;2023-04-20T13:37:23;7.30;99.90
32965;DHT22;19317;48.226;11.686;2023-04-20T13:42:14;7.40;99.90
32965;DHT22;19317;48.226;11.686;2023-04-20T13:47:04;7.70;99.90
32965;DHT22;19317;48.226;11.686;2023-04-20T13:51:55;7.50;99.90
32965;DHT22;19317;48.226;11.686;2023-04-20T13:56:45;7.50;99.90
32965;DHT22;19317;48.226;11.686;2023-04-20T14:01:36;7.60;99.90
32965;DHT22;19317;48.226;11.686;2023-04-20T14:06:26;7.60;99.90
32965;DHT22;19317;48.226;11.686;2023-04-20T14:11:16;7.60;99.90
32965;DHT22;19317;48.226;11.686;2023-04-20T14:16:08;7.70;99.90
32965;DHT22;19317;48.226;11.686;2023-04-20T14:20:58;7.80;99.90
32965;DHT22;19317;48.226;11.686;2023-04-20T14:25:49;7.80;99.90
32965;DHT22;19317;48.226;11.686;2023-04-20T14:30:40;7.80;99.90
32965;DHT22;19317;48.226;11.686;2023-04-20T14:35:30;7.90;99.90
32965;DHT22;19317;48.226;11.686;2023-04-20T14:40:21;8.00;99.90
32965;DHT22;19317;48.226;11.686;2023-04-20T14:45:12;8.00;99.90
32965;DHT22;19317;48.226;11.686;2023-04-20T14:50:02;8.10;99.90
32965;DHT22;19317;48.226;11.686;2023-04-20T14:54:53;8.10;99.90
32965;DHT22;19317;48.226;11.686;2023-04-20T14:59:43;8.20;99.90
32965;DHT22;19317;48.226;11.686;2023-04-20T15:04:34;8.20;99.90
32965;DHT22;19317;48.226;11.686;2023-04-20T15:09:24;8.30;99.90
32965;DHT22;19317;48.226;11.686;2023-04-20T15:14:15;8.30;99.90
32965;DHT22;19317;48.226;11.686;2023-04-20T15:19:05;8.50;99.90
32965;DHT22;19317;48.226;11.686;2023-04-20T15:23:56;8.60;99.90
32965;DHT22;19317;48.226;11.686;2023-04-20T15:28:46;8.50;99.90
32965;DHT22;19317;48.226;11.686;2023-04-20T15:33:37;8.60;99.90
32965;DHT22;19317;48.226;11.686;2023-04-20T15:38:27;8.80;99.90
32965;DHT22;19317;48.226;11.686;2023-04-20T15:43:18;8.90;99.90
32965;DHT22;19317;48.226;11.686;2023-04-20T15:48:08;9.10;99.90
32965;DHT22;19317;48.226;11.686;2023-04-20T15:52:59;9.10;99.90
32965;DHT22;19317;48.226;11.686;2023-04-20T15:57:49;9.20;99.90
32965;DHT22;19317;48.226;11.686;2023-04-20T16:02:39;9.10;99.90
32965;DHT22;19317;48.226;11.686;2023-04-20T16:07:30;9.20;99.90
32965;DHT22;19317;48.226;11.686;2023-04-20T16:12:20;9.20;99.90
32965;DHT22;19317;48.226;11.686;2023-04-20T16:17:11;9.00;99.90
32965;DHT22;19317;48.226;11.686;2023-04-20T16:22:01;9.00;99.90
32965;DHT22;19317;48.226;11.686;2023-04-20T16:26:52;9.20;99.90
32965;DHT22;19317;48.226;11.686;2023-04-20T16:31:42;9.30;99.90
32965;DHT22;19317;48.226;11.686;2023-04-20T16:36:33;9.10;99.90
32965;DHT22;19317;48.226;11.686;2023-04-20T16:41:24;9.30;99.90
32965;DHT22;19317;48.226;11.686;2023-04-20T16:46:14;9.50;99.90
32965;DHT22;19317;48.226;11.686;2023-04-20T16:51:05;9.30;99.90
32965;DHT22;19317;48.226;11.686;2023-04-20T16:55:56;9.40;99.90
32965;DHT22;19317;48.226;11.686;2023-04-20T17:00:47;9.30;99.90
32965;DHT22;19317;48.226;11.686;2023-04-20T17:05:38;9.20;99.90
32965;DHT22;19317;48.226;11.686;2023-04-20T17:10:28;9.20;99.90
32965;DHT22;19317;48.226;11.686;2023-04-20T17:15:19;9.10;99.90
32965;DHT22;19317;48.226;11.686;2023-04-20T17:20:09;9.00;99.90
32965;DHT22;19317;48.226;11.686;2023-04-20T17:25:00;9.00;99.90
32965;DHT22;19317;48.226;11.686;2023-04-20T17:29:51;8.90;99.90
32965;DHT22;19317;48.226;11.686;2023-04-20T17:34:41;8.90;99.90
32965;DHT22;19317;48.226;11.686;2023-04-20T17:39:31;8.80;99.90
32965;DHT22;19317;48.226;11.686;2023-04-20T17:44:22;8.90;99.90
32965;DHT22;19317;48.226;11.686;2023-04-20T17:49:12;8.90;99.90
32965;DHT22;19317;48.226;11.686;2023-04-20T17:54:03;8.60;99.90
32965;DHT22;19317;48.226;11.686;2023-04-20T17:58:53;8.50;99.90
32965;DHT22;19317;48.226;11.686;2023-04-20T18:03:44;8.30;99.90
32965;DHT22;19317;48.226;11.686;2023-04-20T18:08:34;8.30;99.90
32965;DHT22;19317;48.226;11.686;2023-04-20T18:13:24;8.20;99.90
32965;DHT22;19317;48.226;11.686;2023-04-20T18:18:15;8.10;99.90
32965;DHT22;19317;48.226;11.686;2023-04-20T18:23:05;8.10;99.90
32965;DHT22;19317;48.226;11.686;2023-04-20T18:27:56;8.00;99.90
32965;DHT22;19317;48.226;11.686;2023-04-20T18:32:46;7.90;99.90
32965;DHT22;19317;48.226;11.686;2023-04-20T18:37:37;7.90;99.90
32965;DHT22;19317;48.226;11.686;2023-04-20T18:42:27;7.80;99.90
32965;DHT22;19317;48.226;11.686;2023-04-20T18:47:18;7.80;99.90
32965;DHT22;19317;48.226;11.686;2023-04-20T18:52:10;7.80;99.90
32965;DHT22;19317;48.226;11.686;2023-04-20T18:57:00;7.80;99.90
32965;DHT22;19317;48.226;11.686;2023-04-20T19:01:51;7.70;99.90
32965;DHT22;19317;48.226;11.686;2023-04-20T19:06:41;7.70;99.90
32965;DHT22;19317;48.226;11.686;2023-04-20T19:11:32;7.60;99.90
32965;DHT22;19317;48.226;11.686;2023-04-20T19:16:22;7.60;99.90
32965;DHT22;19317;48.226;11.686;2023-04-20T19:21:12;7.60;99.90
32965;DHT22;19317;48.226;11.686;2023-04-20T19:26:03;7.50;99.90
32965;DHT22;19317;48.226;11.686;2023-04-20T19:30:53;7.50;99.90
32965;DHT22;19317;48.226;11.686;2023-04-20T19:35:44;7.40;99.90
32965;DHT22;19317;48.226;11.686;2023-04-20T19:40:34;7.40;99.90
32965;DHT22;19317;48.226;11.686;2023-04-20T19:45:25;7.50;99.90
32965;DHT22;19317;48.226;11.686;2023-04-20T19:50:15;7.40;99.90
32965;DHT22;19317;48.226;11.686;2023-04-20T19:55:07;7.30;99.90
32965;DHT22;19317;48.226;11.686;2023-04-20T19:59:57;7.30;99.90
32965;DHT22;19317;48.226;11.686;2023-04-20T20:04:48;7.30;99.90
32965;DHT22;19317;48.226;11.686;2023-04-20T20:09:38;7.30;99.90
32965;DHT22;19317;48.226;11.686;2023-04-20T20:14:29;7.20;99.90
32965;DHT22;19317;48.226;11.686;2023-04-20T20:19:19;7.30;99.90
32965;DHT22;19317;48.226;11.686;2023-04-20T20:24:10;7.10;99.90
32965;DHT22;19317;48.226;11.686;2023-04-20T20:29:00;7.20;99.90
32965;DHT22;19317;48.226;11.686;2023-04-20T20:33:51;7.10;99.90
32965;DHT22;19317;48.226;11.686;2023-04-20T20:38:41;7.20;99.90
32965;DHT22;19317;48.226;11.686;2023-04-20T20:43:32;7.20;99.90
32965;DHT22;19317;48.226;11.686;2023-04-20T20:48:22;7.10;99.90
32965;DHT22;19317;48.226;11.686;2023-04-20T20:53:12;7.10;99.90
32965;DHT22;19317;48.226;11.686;2023-04-20T20:58:03;7.10;99.90
32965;DHT22;19317;48.226;11.686;2023-04-20T21:02:53;7.00;99.90
32965;DHT22;19317;48.226;11.686;2023-04-20T21:07:44;7.10;99.90
32965;DHT22;19317;48.226;11.686;2023-04-20T21:12:34;7.10;99.90
32965;DHT22;19317;48.226;11.686;2023-04-20T21:17:25;7.20;99.90
32965;DHT22;19317;48.226;11.686;2023-04-20T21:22:15;7.10;99.90
32965;DHT22;19317;48.226;11.686;2023-04-20T21:27:05;7.20;99.90
32965;DHT22;19317;48.226;11.686;2023-04-20T21:31:56;7.30;99.90
32965;DHT22;19317;48.226;11.686;2023-04-20T21:36:46;7.10;99.90
32965;DHT22;19317;48.226;11.686;2023-04-20T21:41:37;7.10;99.90
32965;DHT22;19317;48.226;11.686;2023-04-20T21:46:27;7.10;99.90
32965;DHT22;19317;48.226;11.686;2023-04-20T21:51:18;7.10;99.90
32965;DHT22;19317;48.226;11.686;2023-04-20T21:56:08;7.10;99.90
32965;DHT22;19317;48.226;11.686;2023-04-20T22:00:59;7.10;99.90
32965;DHT22;19317;48.226;11.686;2023-04-20T22:05:49;7.10;99.90
32965;DHT22;19317;48.226;11.686;2023-04-20T22:10:40;7.10;99.90
32965;DHT22;19317;48.226;11.686;2023-04-20T22:15:30;7.10;99.90
32965;DHT22;19317;48.226;11.686;2023-04-20T22:20:21;7.20;99.90
32965;DHT22;19317;48.226;11.686;2023-04-20T22:25:11;7.20;99.90
32965;DHT22;19317;48.226;11.686;2023-04-20T22:30:06;7.10;99.90
32965;DHT22;19317;48.226;11.686;2023-04-20T22:34:56;7.10;99.90
32965;DHT22;19317;48.226;11.686;2023-04-20T22:39:47;7.20;99.90
32965;DHT22;19317;48.226;11.686;2023-04-20T22:44:37;7.20;99.90
32965;DHT22;19317;48.226;11.686;2023-04-20T22:49:28;7.20;99.90
32965;DHT22;19317;48.226;11.686;2023-04-20T22:54:18;7.20;99.90
32965;DHT22;19317;48.226;11.686;2023-04-20T22:59:08;7.30;99.90
32965;DHT22;19317;48.226;11.686;2023-04-20T23:03:59;7.40;99.90
32965;DHT22;19317;48.226;11.686;2023-04-20T23:08:49;7.10;99.90
32965;DHT22;19317;48.226;11.686;2023-04-20T23:13:40;7.30;99.90
32965;DHT22;19317;48.226;11.686;2023-04-20T23:18:30;7.30;99.90
32965;DHT22;19317;48.226;11.686;2023-04-20T23:23:21;7.20;99.90
32965;DHT22;19317;48.226;11.686;2023-04-20T23:28:11;7.20;99.90
32965;DHT22;19317;48.226;11.686;2023-04-20T23:33:01;7.20;99.90
32965;DHT22;19317;48.226;11.686;2023-04-20T23:37:52;7.20;99.90
32965;DHT22;19317;48.226;11.686;2023-04-20T23:42:42;7.10;99.90
32965;DHT22;19317;48.226;11.686;2023-04-20T23:47:33;7.20;99.90
32965;DHT22;19317;48.226;11.686;2023-04-20T23:52:23;7.20;99.90
32965;DHT22;19317;48.226;11.686;2023-04-20T23:57:14;7.20;99.90
